Time;durP1;ratioP1;P1;durP2;ratioP2;P2;SDS_P1;SDS_P2;PMS_P1;PMS_P2;Temp;Humidity;BMP_temperature;BMP_pressure;BME280_temperature;BME280_humidity;BME280_pressure;Samples;Min_cycle;Max_cycle;Signal;HPM_P1;HPM_P2
2023/10/13 00:00:57;;;;;;;4.10;3.33;;;;;;;;;;6104494;23;20441;-89
2023/10/13 00:03:23;;;;;;;7.80;3.17;;;;;;;;;;6083297;23;20382;-91
2023/10/13 00:05:52;;;;;;;4.90;3.20;;;;;;;;;;6081828;23;20464;-89
2023/10/13 00:08:20;;;;;;;4.00;2.93;;;;;;;;;;6083077;23;20422;-91
2023/10/13 00:10:47;;;;;;;4.70;3.40;;;;;;;;;;6128835;23;20474;-89
2023/10/13 00:13:15;;;;;;;5.00;3.67;;;;;;;;;;6136417;23;20886;-90
2023/10/13 00:15:52;;;;;;;3.53;2.60;;;;;;;;;;6133579;23;20405;-89
2023/10/13 00:18:19;;;;;;;3.40;2.90;;;;;;;;;;6163911;23;20956;-89
2023/10/13 00:20:49;;;;;;;4.60;4.00;;;;;;;;;;6136515;23;20936;-89
2023/10/13 00:23:22;;;;;;;4.33;2.93;;;;;;;;;;6136087;23;20729;-90
2023/10/13 00:25:56;;;;;;;4.70;3.10;;;;;;;;;;6134879;23;20413;-89
2023/10/13 00:28:46;;;;;;;8.60;3.60;;;;;;;;;;6141374;23;20477;-90
2023/10/13 00:31:13;;;;;;;6.90;3.37;;;;;;;;;;6133484;23;20722;-90
2023/10/13 00:33:41;;;;;;;3.37;2.77;;;;;;;;;;6134860;23;20468;-89
2023/10/13 00:36:08;;;;;;;6.77;3.03;;;;;;;;;;6132443;23;20385;-90
2023/10/13 00:38:35;;;;;;;4.57;3.10;;;;;;;;;;6189420;22;20399;-90
2023/10/13 00:41:14;;;;;;;3.70;3.00;;;;;;;;;;6231714;22;20480;-89
2023/10/13 00:44:04;;;;;;;4.73;3.00;;;;;;;;;;6241116;22;20377;-90
2023/10/13 00:46:33;;;;;;;5.27;3.10;;;;;;;;;;6235467;22;20370;-90
2023/10/13 00:49:01;;;;;;;6.60;3.50;;;;;;;;;;6260694;22;20409;-90
2023/10/13 00:51:40;;;;;;;8.43;4.17;;;;;;;;;;6232560;22;20402;-89
2023/10/13 00:54:18;;;;;;;7.60;3.47;;;;;;;;;;6237619;22;20391;-89
2023/10/13 00:56:49;;;;;;;5.30;2.97;;;;;;;;;;6233857;22;20362;-90
2023/10/13 00:59:15;;;;;;;5.17;2.90;;;;;;;;;;6233928;22;20374;-90
2023/10/13 01:01:53;;;;;;;5.97;3.67;;;;;;;;;;6258326;22;20381;-90
2023/10/13 01:04:33;;;;;;;5.73;2.47;;;;;;;;;;6262418;22;20484;-90
2023/10/13 01:07:00;;;;;;;6.83;4.83;;;;;;;;;;6233809;22;20427;-90
2023/10/13 01:09:26;;;;;;;6.10;2.77;;;;;;;;;;6196799;23;20426;-90
2023/10/13 01:11:53;;;;;;;3.57;3.27;;;;;;;;;;6175229;23;20379;-89
2023/10/13 01:14:32;;;;;;;5.83;3.43;;;;;;;;;;6197515;23;20363;-89
2023/10/13 01:17:01;;;;;;;3.77;3.17;;;;;;;;;;6170520;23;20450;-89
2023/10/13 01:19:28;;;;;;;6.73;3.10;;;;;;;;;;6179172;23;20375;-88
2023/10/13 01:22:02;;;;;;;9.90;3.47;;;;;;;;;;6189119;23;20376;-90
2023/10/13 01:24:31;;;;;;;5.40;3.70;;;;;;;;;;6167593;23;20391;-89
2023/10/13 01:26:58;;;;;;;3.63;2.97;;;;;;;;;;6163606;23;20390;-89
2023/10/13 01:29:29;;;;;;;5.37;3.80;;;;;;;;;;6169868;23;20507;-90
2023/10/13 01:31:55;;;;;;;5.50;3.60;;;;;;;;;;6166395;23;20383;-89
2023/10/13 01:34:24;;;;;;;5.77;3.47;;;;;;;;;;6178558;23;20422;-91
2023/10/13 01:36:53;;;;;;;5.87;3.20;;;;;;;;;;6164699;23;20380;-91
2023/10/13 01:39:39;;;;;;;5.50;3.80;;;;;;;;;;6169937;23;20387;-90
2023/10/13 01:42:06;;;;;;;4.43;3.20;;;;;;;;;;6168934;23;20400;-89
2023/10/13 01:44:32;;;;;;;7.20;3.33;;;;;;;;;;6190605;23;20380;-90
2023/10/13 01:46:59;;;;;;;5.30;3.50;;;;;;;;;;6192038;23;20384;-89
2023/10/13 01:49:25;;;;;;;8.27;3.37;;;;;;;;;;6170271;23;20458;-89
2023/10/13 01:51:51;;;;;;;5.27;3.20;;;;;;;;;;6170702;23;20380;-91
2023/10/13 01:54:17;;;;;;;5.00;3.53;;;;;;;;;;6230114;22;20381;-89
2023/10/13 01:56:43;;;;;;;4.37;3.13;;;;;;;;;;6230840;22;21150;-89
2023/10/13 01:59:10;;;;;;;3.77;3.37;;;;;;;;;;6231414;22;20377;-90
2023/10/13 02:01:36;;;;;;;5.83;3.07;;;;;;;;;;6231081;22;20873;-89
2023/10/13 02:04:06;;;;;;;5.57;3.40;;;;;;;;;;6238211;22;20377;-90
2023/10/13 02:06:33;;;;;;;5.07;3.67;;;;;;;;;;6288061;22;20362;-90
2023/10/13 02:09:25;;;;;;;8.43;2.80;;;;;;;;;;6257938;22;20396;-90
2023/10/13 02:11:56;;;;;;;3.30;2.80;;;;;;;;;;6229535;23;20482;-90
2023/10/13 02:14:25;;;;;;;4.60;3.40;;;;;;;;;;6173028;23;20463;-90
2023/10/13 02:16:55;;;;;;;5.03;3.10;;;;;;;;;;6173246;23;20474;-90
2023/10/13 02:19:21;;;;;;;4.50;3.67;;;;;;;;;;6172094;23;20426;-89
2023/10/13 02:21:58;;;;;;;4.40;3.57;;;;;;;;;;6177718;23;20374;-91
2023/10/13 02:24:29;;;;;;;4.03;2.70;;;;;;;;;;6173266;23;20427;-90
2023/10/13 02:26:55;;;;;;;5.73;3.10;;;;;;;;;;6174239;23;20359;-90
2023/10/13 02:29:21;;;;;;;10.53;3.73;;;;;;;;;;6170571;23;20451;-89
2023/10/13 02:31:54;;;;;;;6.83;2.67;;;;;;;;;;6171907;23;20407;-90
2023/10/13 02:34:23;;;;;;;5.80;3.40;;;;;;;;;;6197193;23;20776;-90
2023/10/13 02:36:50;;;;;;;6.60;3.63;;;;;;;;;;6178569;23;20410;-91
2023/10/13 02:39:16;;;;;;;10.63;4.33;;;;;;;;;;6168789;23;20387;-91
2023/10/13 02:41:48;;;;;;;4.07;3.10;;;;;;;;;;6184926;22;20464;-90
2023/10/13 02:44:20;;;;;;;6.10;3.60;;;;;;;;;;6230707;22;20366;-91
2023/10/13 02:46:50;;;;;;;7.03;3.13;;;;;;;;;;6237047;22;20354;-90
2023/10/13 02:49:19;;;;;;;10.60;4.13;;;;;;;;;;6232533;22;20393;-90
2023/10/13 02:51:45;;;;;;;4.50;3.23;;;;;;;;;;6236236;22;20385;-89
2023/10/13 02:54:11;;;;;;;7.57;3.40;;;;;;;;;;6233042;22;20396;-90
2023/10/13 02:56:56;;;;;;;3.93;2.90;;;;;;;;;;6234611;22;20435;-91
2023/10/13 02:59:34;;;;;;;3.30;3.00;;;;;;;;;;6235636;22;20380;-90
2023/10/13 03:02:00;;;;;;;4.50;3.03;;;;;;;;;;6262613;22;20360;-90
2023/10/13 03:04:27;;;;;;;4.70;3.13;;;;;;;;;;6231565;22;20373;-89
2023/10/13 03:06:53;;;;;;;6.03;3.53;;;;;;;;;;6264766;22;20381;-90
2023/10/13 03:09:21;;;;;;;4.30;3.27;;;;;;;;;;6232417;22;20417;-90
2023/10/13 03:11:50;;;;;;;4.33;3.23;;;;;;;;;;6239020;22;20452;-89
2023/10/13 03:14:32;;;;;;;5.03;4.10;;;;;;;;;;6231906;22;20390;-90
2023/10/13 03:17:06;;;;;;;7.27;3.50;;;;;;;;;;6236034;22;20400;-90
2023/10/13 03:19:39;;;;;;;5.50;3.10;;;;;;;;;;6234161;22;20400;-90
2023/10/13 03:22:09;;;;;;;7.30;2.90;;;;;;;;;;6259120;22;20450;-90
2023/10/13 03:24:35;;;;;;;6.30;3.20;;;;;;;;;;6233222;22;20473;-89
2023/10/13 03:27:09;;;;;;;4.10;3.27;;;;;;;;;;6235831;22;20385;-90
2023/10/13 03:29:36;;;;;;;5.03;3.43;;;;;;;;;;6263644;22;20401;-90
2023/10/13 03:32:11;;;;;;;5.40;3.90;;;;;;;;;;6235169;22;20805;-91
2023/10/13 03:34:51;;;;;;;5.30;3.47;;;;;;;;;;6196236;23;20461;-89
2023/10/13 03:37:18;;;;;;;3.80;3.13;;;;;;;;;;6173873;23;20763;-90
2023/10/13 03:39:48;;;;;;;5.33;2.70;;;;;;;;;;6174716;23;20402;-89
2023/10/13 03:42:21;;;;;;;7.20;4.10;;;;;;;;;;6174034;23;20406;-91
2023/10/13 03:44:47;;;;;;;5.00;4.07;;;;;;;;;;6172442;23;20370;-90
2023/10/13 03:47:26;;;;;;;4.87;3.30;;;;;;;;;;6171967;23;20706;-90
2023/10/13 03:50:08;;;;;;;3.20;2.80;;;;;;;;;;6176117;23;20426;-90
2023/10/13 03:52:40;;;;;;;5.60;3.07;;;;;;;;;;6204875;23;20869;-89
2023/10/13 03:55:08;;;;;;;7.63;4.60;;;;;;;;;;6199605;23;20446;-89
2023/10/13 03:57:40;;;;;;;4.37;2.80;;;;;;;;;;6200538;23;20372;-90
2023/10/13 04:00:09;;;;;;;6.10;3.17;;;;;;;;;;6197011;23;20378;-89
2023/10/13 04:02:38;;;;;;;4.80;2.43;;;;;;;;;;6170223;23;20455;-90
2023/10/13 04:05:09;;;;;;;3.70;3.23;;;;;;;;;;6195595;22;20415;-90
2023/10/13 04:08:44;;;;;;;4.13;3.40;;;;;;;;;;6284348;22;20364;-90
2023/10/13 04:16:34;;;;;;;5.00;3.33;;;;;;;;;;6270230;22;20396;-89
2023/10/13 04:24:18;;;;;;;5.00;4.00;;;;;;;;;;6259107;22;20357;-90
2023/10/13 04:27:27;;;;;;;4.80;3.30;;;;;;;;;;6236994;22;20377;-90
2023/10/13 04:32:46;;;;;;;3.53;3.10;;;;;;;;;;6260396;22;20369;-90
2023/10/13 04:40:24;;;;;;;10.73;4.03;;;;;;;;;;6265661;22;20369;-93
2023/10/13 04:42:53;;;;;;;6.87;2.90;;;;;;;;;;6234010;22;20381;-93
2023/10/13 04:53:59;;;;;;;7.40;3.30;;;;;;;;;;6283724;22;20416;-92
2023/10/13 05:05:11;;;;;;;7.13;3.40;;;;;;;;;;6265404;22;20431;-93
2023/10/13 05:46:35;;;;;;;5.10;3.50;;;;;;;;;;6174551;23;20898;-92
2023/10/13 06:29:38;;;;;;;3.87;2.93;;;;;;;;;;6194929;23;20442;-91
2023/10/13 06:32:10;;;;;;;10.87;4.13;;;;;;;;;;6193668;23;20411;-91
2023/10/13 06:34:45;;;;;;;11.00;4.17;;;;;;;;;;6198397;23;20375;-91
2023/10/13 06:37:30;;;;;;;8.20;3.57;;;;;;;;;;6195794;23;20376;-92
2023/10/13 06:39:56;;;;;;;7.23;3.37;;;;;;;;;;6203749;23;20372;-91
2023/10/13 06:42:27;;;;;;;7.50;4.03;;;;;;;;;;6196526;23;20467;-92
2023/10/13 06:44:56;;;;;;;5.93;3.43;;;;;;;;;;6193684;23;20463;-91
2023/10/13 06:47:27;;;;;;;8.20;3.40;;;;;;;;;;6192748;23;20395;-91
2023/10/13 06:49:54;;;;;;;7.10;2.87;;;;;;;;;;6195632;23;20484;-92
2023/10/13 06:52:22;;;;;;;14.00;4.70;;;;;;;;;;6192292;23;20848;-92
2023/10/13 06:55:05;;;;;;;5.83;3.80;;;;;;;;;;6200178;23;20423;-91
2023/10/13 06:57:34;;;;;;;10.93;3.27;;;;;;;;;;6216552;23;20703;-91
2023/10/13 07:00:07;;;;;;;18.40;4.03;;;;;;;;;;6196314;23;20419;-92
2023/10/13 07:02:34;;;;;;;6.90;5.00;;;;;;;;;;6197207;23;20435;-91
2023/10/13 07:05:11;;;;;;;3.83;3.40;;;;;;;;;;6196121;23;20387;-88
2023/10/13 07:07:38;;;;;;;5.43;2.90;;;;;;;;;;6191186;23;20431;-90
2023/10/13 07:10:07;;;;;;;7.57;2.93;;;;;;;;;;6195593;23;20416;-89
2023/10/13 07:12:33;;;;;;;8.80;3.57;;;;;;;;;;6190779;23;20387;-89
2023/10/13 07:15:10;;;;;;;6.50;3.57;;;;;;;;;;6193555;23;20380;-88
2023/10/13 07:17:40;;;;;;;5.77;3.33;;;;;;;;;;6191668;23;20368;-89
2023/10/13 07:23:02;;;;;;;3.53;3.20;;;;;;;;;;6190552;23;20450;-89
2023/10/13 07:25:32;;;;;;;3.40;2.60;;;;;;;;;;6170768;23;20354;-88
2023/10/13 07:27:59;;;;;;;7.97;3.07;;;;;;;;;;6140420;23;20372;-89
2023/10/13 07:30:30;;;;;;;6.17;2.97;;;;;;;;;;6148808;23;20434;-88
2023/10/13 07:32:59;;;;;;;6.07;3.40;;;;;;;;;;6166214;23;20345;-88
2023/10/13 07:35:26;;;;;;;6.53;3.17;;;;;;;;;;6143990;23;20848;-89
2023/10/13 07:37:55;;;;;;;3.80;2.63;;;;;;;;;;6143142;23;20395;-89
2023/10/13 07:42:51;;;;;;;4.90;3.27;;;;;;;;;;6169755;23;20499;-90
2023/10/13 07:45:25;;;;;;;5.83;3.63;;;;;;;;;;6141954;23;20376;-90
2023/10/13 07:47:54;;;;;;;8.27;3.20;;;;;;;;;;6143718;23;20377;-90
2023/10/13 07:50:25;;;;;;;7.07;3.83;;;;;;;;;;6141448;23;20419;-90
2023/10/13 07:53:04;;;;;;;5.20;3.63;;;;;;;;;;6144291;23;20393;-90
2023/10/13 07:55:38;;;;;;;4.10;3.00;;;;;;;;;;6144260;23;20380;-88
2023/10/13 07:58:07;;;;;;;5.03;3.00;;;;;;;;;;6192168;23;20450;-89
2023/10/13 08:00:54;;;;;;;5.53;3.27;;;;;;;;;;6146502;23;20424;-89
2023/10/13 08:03:35;;;;;;;7.33;3.20;;;;;;;;;;6103948;23;20392;-89
2023/10/13 08:06:18;;;;;;;4.73;3.30;;;;;;;;;;6146926;23;20446;-89
2023/10/13 08:08:49;;;;;;;5.50;3.40;;;;;;;;;;6171608;23;20403;-89
2023/10/13 08:13:54;;;;;;;6.00;3.30;;;;;;;;;;6167441;23;20364;-89
2023/10/13 08:16:23;;;;;;;7.00;4.30;;;;;;;;;;6142419;23;20380;-88
2023/10/13 08:18:49;;;;;;;6.87;2.57;;;;;;;;;;6139649;23;20384;-89
2023/10/13 08:21:22;;;;;;;11.67;3.80;;;;;;;;;;6143997;23;20407;-88
2023/10/13 08:24:07;;;;;;;7.03;3.90;;;;;;;;;;6159035;23;20778;-89
2023/10/13 08:37:32;;;;;;;9.50;3.50;;;;;;;;;;6204299;23;20383;-89
2023/10/13 08:48:08;;;;;;;5.33;3.40;;;;;;;;;;6221144;23;20351;-89
2023/10/13 08:53:44;;;;;;;5.70;4.60;;;;;;;;;;6136903;23;20383;-89
2023/10/13 09:09:34;;;;;;;8.40;3.37;;;;;;;;;;6198976;23;20418;-89
2023/10/13 09:12:09;;;;;;;10.60;3.90;;;;;;;;;;6203248;23;20405;-91
2023/10/13 09:14:43;;;;;;;5.30;3.20;;;;;;;;;;6196267;23;20346;-90
2023/10/13 09:17:12;;;;;;;8.93;4.37;;;;;;;;;;6199533;23;20371;-89
2023/10/13 09:19:48;;;;;;;4.60;3.13;;;;;;;;;;6194735;23;20390;-89
2023/10/13 09:22:36;;;;;;;11.30;6.77;;;;;;;;;;6224803;23;20874;-90
2023/10/13 09:25:02;;;;;;;7.40;2.90;;;;;;;;;;6199178;23;20374;-89
2023/10/13 09:27:32;;;;;;;8.23;3.43;;;;;;;;;;6166390;23;20809;-89
2023/10/13 09:30:09;;;;;;;4.70;2.60;;;;;;;;;;6188085;23;20415;-88
2023/10/13 09:32:51;;;;;;;4.10;2.80;;;;;;;;;;6191267;23;20455;-89
2023/10/13 09:37:56;;;;;;;11.90;3.40;;;;;;;;;;6198550;23;20527;-90
2023/10/13 09:40:25;;;;;;;8.20;2.93;;;;;;;;;;6165947;23;20383;-89
2023/10/13 09:42:53;;;;;;;5.90;2.90;;;;;;;;;;6173114;23;20376;-88
2023/10/13 09:45:21;;;;;;;6.47;3.00;;;;;;;;;;6165685;23;20384;-91
2023/10/13 09:47:52;;;;;;;7.73;3.60;;;;;;;;;;6169482;23;20741;-91
2023/10/13 09:50:24;;;;;;;7.23;3.57;;;;;;;;;;6165490;23;20707;-92
2023/10/13 09:52:52;;;;;;;11.47;3.17;;;;;;;;;;6170608;23;20584;-91
2023/10/13 09:55:27;;;;;;;4.57;2.80;;;;;;;;;;6167365;23;20458;-91
2023/10/13 09:57:59;;;;;;;3.10;2.33;;;;;;;;;;6170049;23;20847;-91
2023/10/13 10:00:46;;;;;;;5.37;3.07;;;;;;;;;;6170052;23;20352;-91
2023/10/13 10:06:18;;;;;;;7.57;2.90;;;;;;;;;;6185919;22;20454;-91
2023/10/13 10:08:50;;;;;;;4.53;2.40;;;;;;;;;;6216449;23;20428;-90
2023/10/13 10:11:35;;;;;;;5.50;3.17;;;;;;;;;;6192735;23;20395;-94
2023/10/13 10:14:01;;;;;;;5.30;3.13;;;;;;;;;;6216227;23;20363;-90
2023/10/13 10:16:46;;;;;;;8.40;3.23;;;;;;;;;;6209099;23;20371;-90
2023/10/13 10:19:12;;;;;;;4.60;3.13;;;;;;;;;;6170468;23;20937;-90
2023/10/13 10:21:40;;;;;;;4.80;3.00;;;;;;;;;;6177028;23;20450;-90
2023/10/13 10:24:14;;;;;;;5.40;2.90;;;;;;;;;;6171942;23;20379;-90
2023/10/13 10:26:54;;;;;;;7.00;3.00;;;;;;;;;;6197468;23;20390;-90
2023/10/13 10:29:20;;;;;;;6.23;3.13;;;;;;;;;;6172093;23;20417;-90
2023/10/13 10:31:47;;;;;;;8.10;3.50;;;;;;;;;;6176441;23;20745;-90
2023/10/13 10:34:19;;;;;;;4.13;2.97;;;;;;;;;;6170208;23;21238;-90
2023/10/13 10:36:48;;;;;;;6.47;3.00;;;;;;;;;;6174783;23;20387;-89
2023/10/13 10:39:15;;;;;;;6.30;3.10;;;;;;;;;;6171250;23;20383;-90
2023/10/13 10:41:54;;;;;;;5.83;4.27;;;;;;;;;;6175908;23;20862;-90
2023/10/13 10:44:33;;;;;;;5.90;3.50;;;;;;;;;;6172393;23;20437;-89
2023/10/13 10:47:09;;;;;;;6.57;3.83;;;;;;;;;;6180665;23;20418;-90
2023/10/13 10:49:37;;;;;;;8.77;2.73;;;;;;;;;;6169244;23;20532;-90
2023/10/13 10:52:04;;;;;;;7.37;4.23;;;;;;;;;;6174083;23;20414;-89
2023/10/13 10:54:33;;;;;;;6.67;3.20;;;;;;;;;;6146566;23;20507;-91
2023/10/13 10:57:17;;;;;;;6.90;3.50;;;;;;;;;;6170718;23;21119;-90
2023/10/13 10:59:43;;;;;;;4.97;3.07;;;;;;;;;;6225395;22;20388;-90
2023/10/13 11:02:09;;;;;;;4.60;3.20;;;;;;;;;;6232448;22;20381;-90
2023/10/13 11:04:41;;;;;;;4.67;2.80;;;;;;;;;;6234299;22;20377;-90
2023/10/13 11:07:08;;;;;;;7.23;3.57;;;;;;;;;;6256066;22;20381;-89
2023/10/13 11:12:13;;;;;;;8.00;3.50;;;;;;;;;;6259471;22;20400;-89
2023/10/13 11:14:39;;;;;;;8.60;2.90;;;;;;;;;;6260346;22;20377;-92
2023/10/13 11:17:26;;;;;;;7.43;4.60;;;;;;;;;;6236343;22;20357;-93
2023/10/13 11:19:53;;;;;;;6.63;2.70;;;;;;;;;;6222261;23;20751;-92
2023/10/13 11:25:11;;;;;;;11.63;3.60;;;;;;;;;;6199888;23;20383;-93
2023/10/13 11:31:10;;;;;;;4.17;2.70;;;;;;;;;;6208316;23;20490;-92
2023/10/13 11:33:08;;;;;;;4.60;2.97;;;;;;;;;;6184274;23;20407;-91
2023/10/13 11:38:26;;;;;;;5.50;3.17;;;;;;;;;;6202661;23;20364;-92
2023/10/13 11:46:15;;;;;;;6.30;3.00;;;;;;;;;;6196690;23;20379;-89
2023/10/13 11:48:46;;;;;;;12.33;3.27;;;;;;;;;;6169750;23;20928;-92
2023/10/13 11:51:32;;;;;;;6.17;3.10;;;;;;;;;;6218011;22;20397;-92
2023/10/13 11:54:01;;;;;;;5.07;3.30;;;;;;;;;;6240633;22;20382;-90
2023/10/13 11:56:27;;;;;;;4.77;3.07;;;;;;;;;;6230204;22;20385;-90
2023/10/13 11:58:53;;;;;;;6.50;4.20;;;;;;;;;;6240560;22;20440;-93
2023/10/13 12:04:30;;;;;;;7.43;3.23;;;;;;;;;;6234481;22;20373;-94
2023/10/13 12:10:03;;;;;;;5.10;3.00;;;;;;;;;;6264291;22;20459;-91
2023/10/13 12:12:30;;;;;;;11.93;3.70;;;;;;;;;;6235959;22;20359;-92
2023/10/13 12:14:56;;;;;;;8.10;3.43;;;;;;;;;;6235134;22;20365;-91
2023/10/13 12:17:39;;;;;;;3.40;2.87;;;;;;;;;;6231151;22;20843;-92
2023/10/13 12:20:09;;;;;;;8.83;3.57;;;;;;;;;;6237734;22;20366;-90
2023/10/13 12:22:51;;;;;;;5.20;3.50;;;;;;;;;;6230940;22;20382;-90
2023/10/13 12:28:12;;;;;;;5.90;3.23;;;;;;;;;;6220070;23;20380;-90
2023/10/13 12:30:48;;;;;;;6.10;3.37;;;;;;;;;;6201616;23;20387;-89
2023/10/13 12:33:23;;;;;;;4.57;3.50;;;;;;;;;;6170962;23;20382;-89
2023/10/13 12:49:57;;;;;;;4.63;3.47;;;;;;;;;;6198952;23;20442;-90
2023/10/13 12:52:26;;;;;;;8.10;3.30;;;;;;;;;;6174402;23;20383;-90
2023/10/13 12:57:23;;;;;;;5.23;3.53;;;;;;;;;;6197340;23;20414;-90
2023/10/13 12:59:49;;;;;;;6.60;3.40;;;;;;;;;;6254347;22;20372;-91
2023/10/13 13:02:15;;;;;;;4.37;3.20;;;;;;;;;;6255776;22;20837;-91
2023/10/13 13:05:05;;;;;;;4.70;3.00;;;;;;;;;;6236618;22;20681;-91
2023/10/13 13:07:31;;;;;;;4.77;3.30;;;;;;;;;;6236551;22;20919;-91
2023/10/13 13:10:02;;;;;;;8.93;3.40;;;;;;;;;;6233458;22;20413;-89
2023/10/13 13:12:28;;;;;;;3.10;2.73;;;;;;;;;;6231590;22;20466;-88
2023/10/13 13:14:55;;;;;;;9.63;3.07;;;;;;;;;;6233389;22;20381;-90
2023/10/13 13:17:24;;;;;;;3.70;2.80;;;;;;;;;;6231970;22;20885;-91
2023/10/13 13:19:50;;;;;;;6.50;2.97;;;;;;;;;;6234368;22;20394;-90
2023/10/13 13:22:17;;;;;;;9.37;3.20;;;;;;;;;;6231848;22;20846;-92
2023/10/13 13:24:44;;;;;;;6.90;3.27;;;;;;;;;;6259131;22;20370;-90
2023/10/13 13:27:17;;;;;;;7.90;3.00;;;;;;;;;;6258631;22;20437;-91
2023/10/13 13:29:43;;;;;;;7.07;3.03;;;;;;;;;;6237796;22;20514;-90
2023/10/13 13:32:23;;;;;;;4.97;2.70;;;;;;;;;;6234852;22;20381;-90
2023/10/13 13:35:07;;;;;;;4.60;2.87;;;;;;;;;;6237025;22;20392;-91
2023/10/13 13:37:33;;;;;;;6.83;3.20;;;;;;;;;;6237623;22;20385;-91
2023/10/13 13:40:17;;;;;;;6.50;2.70;;;;;;;;;;6238037;22;20387;-90
2023/10/13 13:42:44;;;;;;;5.63;3.00;;;;;;;;;;6261222;22;20357;-90
2023/10/13 13:45:56;;;;;;;8.67;3.10;;;;;;;;;;6238394;22;20837;-90
2023/10/13 13:48:15;;;;;;;7.77;2.70;;;;;;;;;;6259361;22;20523;-91
2023/10/13 13:50:41;;;;;;;4.37;3.23;;;;;;;;;;6261941;22;20373;-90
2023/10/13 13:53:11;;;;;;;6.13;3.30;;;;;;;;;;6234209;22;20356;-89
2023/10/13 13:55:39;;;;;;;7.83;2.90;;;;;;;;;;6238935;22;20384;-90
2023/10/13 13:58:08;;;;;;;6.23;2.80;;;;;;;;;;6258283;22;20409;-90
2023/10/13 14:00:37;;;;;;;7.13;2.80;;;;;;;;;;6234585;22;20369;-90
2023/10/13 14:03:12;;;;;;;5.43;3.60;;;;;;;;;;6238575;22;20377;-90
2023/10/13 14:05:43;;;;;;;5.50;3.10;;;;;;;;;;6260047;22;20825;-92
2023/10/13 14:08:11;;;;;;;5.53;2.80;;;;;;;;;;6232826;22;20404;-91
2023/10/13 14:13:48;;;;;;;6.33;3.00;;;;;;;;;;6264286;22;20802;-91
2023/10/13 14:16:17;;;;;;;7.50;2.80;;;;;;;;;;6196190;23;20375;-91
2023/10/13 14:18:50;;;;;;;5.43;2.90;;;;;;;;;;6174589;23;20738;-92
2023/10/13 14:21:19;;;;;;;4.80;2.73;;;;;;;;;;6172632;23;20769;-91
2023/10/13 14:23:48;;;;;;;5.00;2.63;;;;;;;;;;6180003;23;20398;-91
2023/10/13 14:26:20;;;;;;;9.47;3.10;;;;;;;;;;6171899;23;20450;-91
2023/10/13 14:29:05;;;;;;;5.00;2.80;;;;;;;;;;6200734;23;20886;-89
2023/10/13 14:31:31;;;;;;;4.40;2.47;;;;;;;;;;6175061;23;20855;-89
2023/10/13 14:33:57;;;;;;;4.73;2.53;;;;;;;;;;6177448;23;20682;-90
2023/10/13 14:36:26;;;;;;;5.50;3.10;;;;;;;;;;6169847;23;20383;-90
2023/10/13 14:38:52;;;;;;;6.10;3.80;;;;;;;;;;6171812;23;20402;-90
2023/10/13 14:41:18;;;;;;;5.90;3.00;;;;;;;;;;6193807;23;20432;-90
2023/10/13 14:43:56;;;;;;;18.67;3.00;;;;;;;;;;6198247;23;20429;-90
2023/10/13 14:46:25;;;;;;;14.67;2.97;;;;;;;;;;6191323;22;20373;-90
2023/10/13 14:48:54;;;;;;;5.70;2.90;;;;;;;;;;6261518;22;20404;-89
2023/10/13 14:51:20;;;;;;;9.27;3.27;;;;;;;;;;6231285;22;20388;-89
2023/10/13 14:53:46;;;;;;;5.37;2.73;;;;;;;;;;6231994;22;20460;-89
2023/10/13 14:56:12;;;;;;;4.03;2.53;;;;;;;;;;6232049;22;20385;-90
2023/10/13 14:58:42;;;;;;;4.80;2.40;;;;;;;;;;6237835;22;20361;-89
2023/10/13 15:01:14;;;;;;;3.20;2.43;;;;;;;;;;6232580;22;20421;-89
2023/10/13 15:03:41;;;;;;;3.17;2.17;;;;;;;;;;6236623;22;20389;-88
2023/10/13 15:06:07;;;;;;;10.60;3.27;;;;;;;;;;6234980;22;20459;-89
2023/10/13 15:08:35;;;;;;;4.90;2.97;;;;;;;;;;6242858;22;20435;-90
2023/10/13 15:11:12;;;;;;;4.73;2.80;;;;;;;;;;6230312;22;20388;-91
2023/10/13 15:13:45;;;;;;;2.93;2.30;;;;;;;;;;6266000;22;20357;-90
2023/10/13 15:16:17;;;;;;;7.03;2.80;;;;;;;;;;6230436;22;20382;-90
2023/10/13 15:18:46;;;;;;;7.80;2.53;;;;;;;;;;6236636;22;20933;-90
2023/10/13 15:21:13;;;;;;;3.27;2.23;;;;;;;;;;6229908;22;20484;-90
2023/10/13 15:23:44;;;;;;;4.40;2.43;;;;;;;;;;6233186;22;20378;-90
2023/10/13 15:26:13;;;;;;;4.27;2.27;;;;;;;;;;6231582;22;20909;-89
2023/10/13 15:28:48;;;;;;;4.50;2.20;;;;;;;;;;6234829;22;20416;-90
2023/10/13 15:34:07;;;;;;;4.80;2.57;;;;;;;;;;6201994;22;20369;-90
2023/10/13 15:36:34;;;;;;;5.73;2.33;;;;;;;;;;6233562;22;20390;-90
2023/10/13 15:39:00;;;;;;;4.47;2.60;;;;;;;;;;6240086;22;20393;-90
2023/10/13 15:41:26;;;;;;;3.33;2.40;;;;;;;;;;6232515;22;20377;-90
2023/10/13 15:43:54;;;;;;;7.57;2.97;;;;;;;;;;6234678;22;20381;-91
2023/10/13 15:46:32;;;;;;;3.10;2.63;;;;;;;;;;6270583;22;20362;-89
2023/10/13 15:48:59;;;;;;;5.27;2.53;;;;;;;;;;6260266;22;20413;-90
2023/10/13 15:51:25;;;;;;;6.50;3.77;;;;;;;;;;6239067;22;20877;-90
2023/10/13 15:53:51;;;;;;;4.60;3.20;;;;;;;;;;6232910;22;20845;-90
2023/10/13 15:56:20;;;;;;;4.53;2.93;;;;;;;;;;6239371;22;20365;-90
2023/10/13 15:58:46;;;;;;;2.70;2.20;;;;;;;;;;6231249;22;20384;-91
2023/10/13 16:01:15;;;;;;;10.80;3.97;;;;;;;;;;6236616;22;20381;-89
2023/10/13 16:03:43;;;;;;;5.00;3.03;;;;;;;;;;6234947;22;20492;-90
2023/10/13 16:06:13;;;;;;;5.67;3.40;;;;;;;;;;6236990;22;20386;-89
2023/10/13 16:08:45;;;;;;;3.73;2.63;;;;;;;;;;6259385;22;20421;-89
2023/10/13 16:11:13;;;;;;;6.30;3.53;;;;;;;;;;6237793;22;20373;-89
2023/10/13 16:13:40;;;;;;;5.83;3.27;;;;;;;;;;6258132;22;20373;-90
2023/10/13 16:16:06;;;;;;;5.80;3.83;;;;;;;;;;6233739;22;20416;-89
2023/10/13 16:18:33;;;;;;;4.63;3.03;;;;;;;;;;6233052;22;20381;-90
2023/10/13 16:21:03;;;;;;;4.83;2.63;;;;;;;;;;6232814;22;20393;-89
2023/10/13 16:23:30;;;;;;;8.50;3.30;;;;;;;;;;6195527;23;20394;-89
2023/10/13 16:25:59;;;;;;;6.57;2.80;;;;;;;;;;6171696;23;20375;-88
2023/10/13 16:28:25;;;;;;;7.63;3.50;;;;;;;;;;6169936;23;20465;-89
2023/10/13 16:30:54;;;;;;;8.50;3.63;;;;;;;;;;6196231;23;20390;-88
2023/10/13 16:33:23;;;;;;;7.47;3.70;;;;;;;;;;6171914;23;20379;-89
2023/10/13 16:35:53;;;;;;;6.67;3.73;;;;;;;;;;6169420;23;20429;-88
2023/10/13 16:38:19;;;;;;;9.40;4.27;;;;;;;;;;6170457;23;20447;-89
2023/10/13 16:40:49;;;;;;;6.47;4.00;;;;;;;;;;6169822;23;20375;-89
2023/10/13 16:43:19;;;;;;;8.00;3.93;;;;;;;;;;6084575;23;20397;-89
2023/10/13 16:45:45;;;;;;;10.93;5.90;;;;;;;;;;6129416;23;20725;-88
2023/10/13 16:48:16;;;;;;;13.17;5.43;;;;;;;;;;6128769;23;20373;-90
2023/10/13 16:50:45;;;;;;;7.33;4.90;;;;;;;;;;6109902;23;20467;-88
2023/10/13 16:53:12;;;;;;;7.27;3.77;;;;;;;;;;6104436;23;20449;-88
2023/10/13 16:55:43;;;;;;;9.33;5.00;;;;;;;;;;6136935;23;20437;-86
2023/10/13 16:58:12;;;;;;;5.80;3.80;;;;;;;;;;6136639;23;20594;-86
2023/10/13 17:00:42;;;;;;;7.37;4.23;;;;;;;;;;6107632;23;20381;-88
2023/10/13 17:03:08;;;;;;;4.33;3.37;;;;;;;;;;6108536;23;20514;-88
2023/10/13 17:05:41;;;;;;;5.30;3.17;;;;;;;;;;6106762;23;20370;-88
2023/10/13 17:08:07;;;;;;;10.00;4.47;;;;;;;;;;6112939;23;20425;-89
2023/10/13 17:10:35;;;;;;;4.53;3.50;;;;;;;;;;6108078;23;20382;-88
2023/10/13 17:13:04;;;;;;;10.30;6.20;;;;;;;;;;6115245;23;20794;-88
2023/10/13 17:15:32;;;;;;;12.50;5.20;;;;;;;;;;6105877;23;20385;-89
2023/10/13 17:17:59;;;;;;;10.63;4.87;;;;;;;;;;6109286;23;20386;-88
2023/10/13 17:20:25;;;;;;;12.00;4.07;;;;;;;;;;6149785;23;20390;-88
2023/10/13 17:22:55;;;;;;;5.00;3.47;;;;;;;;;;6204246;23;20753;-88
2023/10/13 17:25:21;;;;;;;8.20;3.40;;;;;;;;;;6225466;23;20397;-89
2023/10/13 17:27:48;;;;;;;5.33;3.40;;;;;;;;;;6204381;23;20379;-89
2023/10/13 17:30:14;;;;;;;3.37;2.60;;;;;;;;;;6253349;23;20182;-88
2023/10/13 17:32:44;;;;;;;5.17;3.23;;;;;;;;;;6230707;23;20366;-88
2023/10/13 17:35:11;;;;;;;4.20;2.90;;;;;;;;;;6227608;23;20350;-88
2023/10/13 17:37:42;;;;;;;6.60;3.63;;;;;;;;;;6214633;22;20376;-89
2023/10/13 17:40:08;;;;;;;4.17;2.97;;;;;;;;;;6232201;22;20373;-88
2023/10/13 17:42:35;;;;;;;8.50;5.90;;;;;;;;;;6235487;22;20382;-89
2023/10/13 17:45:05;;;;;;;10.50;5.70;;;;;;;;;;6232101;22;20377;-89
2023/10/13 17:47:36;;;;;;;4.53;3.80;;;;;;;;;;6236382;22;20468;-89
2023/10/13 17:50:03;;;;;;;4.87;3.63;;;;;;;;;;6205637;22;20455;-89
2023/10/13 17:52:29;;;;;;;9.00;4.67;;;;;;;;;;6231902;22;20381;-89
2023/10/13 17:54:55;;;;;;;4.83;3.53;;;;;;;;;;6229461;22;20377;-89
2023/10/13 17:57:24;;;;;;;4.87;3.50;;;;;;;;;;6258931;22;20439;-89
2023/10/13 17:59:53;;;;;;;10.27;4.30;;;;;;;;;;6230739;22;20768;-89
2023/10/13 18:02:20;;;;;;;11.27;4.93;;;;;;;;;;6256408;22;20369;-87
2023/10/13 18:04:46;;;;;;;6.27;3.27;;;;;;;;;;6228538;22;20888;-89
2023/10/13 18:07:12;;;;;;;8.30;4.03;;;;;;;;;;6232160;22;20392;-88
2023/10/13 18:09:42;;;;;;;5.20;3.77;;;;;;;;;;6230227;22;20429;-88
2023/10/13 18:12:11;;;;;;;4.80;3.60;;;;;;;;;;6258264;22;20369;-88
2023/10/13 18:14:38;;;;;;;4.60;3.50;;;;;;;;;;6233042;22;20381;-88
2023/10/13 18:17:08;;;;;;;8.67;3.87;;;;;;;;;;6234483;22;20436;-88
2023/10/13 18:19:34;;;;;;;5.93;3.50;;;;;;;;;;6195990;23;20413;-88
2023/10/13 18:22:01;;;;;;;4.93;3.97;;;;;;;;;;6169487;23;20828;-88
2023/10/13 18:24:27;;;;;;;6.10;4.80;;;;;;;;;;6172268;23;20471;-88
2023/10/13 18:26:56;;;;;;;7.83;5.80;;;;;;;;;;6171867;23;20379;-88
2023/10/13 18:29:22;;;;;;;5.20;3.67;;;;;;;;;;6173948;23;20923;-89
2023/10/13 18:31:48;;;;;;;7.33;6.00;;;;;;;;;;6169453;23;20407;-88
2023/10/13 18:34:14;;;;;;;11.60;8.23;;;;;;;;;;6170594;23;20518;-88